Upstream stations:
Downstream station:
SHEF ID: DSTT2 Red River at Denison Dam nr Deni
STATION TYPE:
PRECIP STAGE RIV-FLOW BAT-LOAD
in ft cfs volt
Ccp-Rev Ccp-Rev Ccp-Rev Ccp-Rev
(US/Central)
07/03 00:00 0.00 5.22 247 12.37
07/03 01:00 0.00 5.02 142 12.37
07/03 02:00 0.00 4.84 88 12.39
07/03 03:00 0.00 4.71 76 12.39
07/03 04:00 0.00 4.59 69 12.35
07/03 05:00 0.00 4.50 65 12.31
07/03 06:00 0.00 4.42 61 12.34
07/03 07:00 0.00 4.39 60 12.31
07/03 08:00 0.00 4.38 60 12.46
07/03 09:00 0.00 4.38 60 13.02
07/03 10:00 0.00 4.38 60 13.27
07/03 11:00 0.00 4.38 60 13.13
07/03 12:00 0.00 4.38 60 13.07
07/03 13:00 0.00 4.38 60 13.09
07/03 14:00 0.00 4.38 60 12.99
07/03 15:00 0.00 5.55 473 12.95
07/03 16:00 0.00 9.08 8100 13.01
07/03 17:00 0.00 9.97 11383 12.86
07/03 18:00 0.00 10.42 12858 12.96
07/03 19:00 0.00 9.61 10029 12.83
07/03 20:00 0.00 7.56 3623 12.77
07/03 21:00 0.00 6.52 1606 12.66
07/03 22:00 0.00 5.88 779 12.42
07/03 23:00 0.00 5.46 404 12.44